Terminal Aerodrome Forecast
Issued by NWS

Home | Current Version | Previous Version | Text Only | Print | Product List | Glossary On
Versions: 1 2 3 4 5 6 7 8 9 10 11 12 13
000
FTUS45 KTFX 260500
TAFLWT
TAF
KLWT 260520Z 2606/2706 22010KT P6SM SCT090 BKN150
      TEMPO 2608/2611 23010G20KT
     FM261100 25013G23KT P6SM SCT080 BKN140
     FM261700 27020G30KT P6SM SCT080 BKN120
     FM270100 25011KT P6SM SCT060 BKN100=

USA.gov is the U.S. government's official web portal to all federal, state and local government web resources and services.